<?xml version="1.0" encoding="UTF-8" standalone="no" ?>
<gpx xmlns="http://www.topografix.com/GPX/1/1" xmlns:xsi="http://www.w3.org/2001/XMLSchema-instance" xsi:schemaLocation="http://www.topografix.com/GPX/1/1 http://www.topografix.com/GPX/1/1/gpx.xsd" version="1.1" creator="VisuGPX - https://www.visugpx.com">
  <metadata>
    <name>13288946-Circuit du chardon bleu</name>
  </metadata>
  <trk>
    <name><![CDATA[13288946-Circuit du chardon bleu]]></name>
    <trkseg>
      <trkpt lat="48.63881" lon="-4.27889">
        <ele>2</ele>
        <time>2021-06-24T12:36:33Z</time>
      </trkpt>
      <trkpt lat="48.6389" lon="-4.27892">
        <ele>2</ele>
        <time>2021-06-24T12:36:40Z</time>
      </trkpt>
      <trkpt lat="48.63904" lon="-4.27897">
        <ele>2</ele>
        <time>2021-06-24T12:36:52Z</time>
      </trkpt>
      <trkpt lat="48.6392" lon="-4.27901">
        <ele>2</ele>
        <time>2021-06-24T12:37:05Z</time>
      </trkpt>
      <trkpt lat="48.63927" lon="-4.27904">
        <ele>2</ele>
        <time>2021-06-24T12:37:11Z</time>
      </trkpt>
      <trkpt lat="48.63932" lon="-4.27903">
        <ele>2</ele>
        <time>2021-06-24T12:37:15Z</time>
      </trkpt>
      <trkpt lat="48.63934" lon="-4.27896">
        <ele>2</ele>
        <time>2021-06-24T12:37:19Z</time>
      </trkpt>
      <trkpt lat="48.63952" lon="-4.27906">
        <ele>2</ele>
        <time>2021-06-24T12:37:34Z</time>
      </trkpt>
      <trkpt lat="48.6399" lon="-4.27919">
        <ele>2</ele>
        <time>2021-06-24T12:38:05Z</time>
      </trkpt>
      <trkpt lat="48.64007" lon="-4.27924">
        <ele>2</ele>
        <time>2021-06-24T12:38:19Z</time>
      </trkpt>
      <trkpt lat="48.64055" lon="-4.27944">
        <ele>3</ele>
        <time>2021-06-24T12:38:59Z</time>
      </trkpt>
      <trkpt lat="48.64092" lon="-4.27954">
        <ele>3</ele>
        <time>2021-06-24T12:39:29Z</time>
      </trkpt>
      <trkpt lat="48.64094" lon="-4.27959">
        <ele>3</ele>
        <time>2021-06-24T12:39:32Z</time>
      </trkpt>
      <trkpt lat="48.64093" lon="-4.27965">
        <ele>3</ele>
        <time>2021-06-24T12:39:36Z</time>
      </trkpt>
      <trkpt lat="48.64092" lon="-4.2797">
        <ele>3</ele>
        <time>2021-06-24T12:39:38Z</time>
      </trkpt>
      <trkpt lat="48.64138" lon="-4.27981">
        <ele>3</ele>
        <time>2021-06-24T12:40:16Z</time>
      </trkpt>
      <trkpt lat="48.64163" lon="-4.27987">
        <ele>2</ele>
        <time>2021-06-24T12:40:36Z</time>
      </trkpt>
      <trkpt lat="48.6418" lon="-4.27989">
        <ele>2</ele>
        <time>2021-06-24T12:40:49Z</time>
      </trkpt>
      <trkpt lat="48.64206" lon="-4.27985">
        <ele>2</ele>
        <time>2021-06-24T12:41:10Z</time>
      </trkpt>
      <trkpt lat="48.64225" lon="-4.27948">
        <ele>3</ele>
        <time>2021-06-24T12:41:35Z</time>
      </trkpt>
      <trkpt lat="48.64259" lon="-4.27894">
        <ele>3</ele>
        <time>2021-06-24T12:42:15Z</time>
      </trkpt>
      <trkpt lat="48.64288" lon="-4.27847">
        <ele>4</ele>
        <time>2021-06-24T12:42:49Z</time>
      </trkpt>
      <trkpt lat="48.64303" lon="-4.2782">
        <ele>4</ele>
        <time>2021-06-24T12:43:07Z</time>
      </trkpt>
      <trkpt lat="48.64307" lon="-4.27814">
        <ele>3</ele>
        <time>2021-06-24T12:43:12Z</time>
      </trkpt>
      <trkpt lat="48.64314" lon="-4.27811">
        <ele>3</ele>
        <time>2021-06-24T12:43:18Z</time>
      </trkpt>
      <trkpt lat="48.64321" lon="-4.27808">
        <ele>3</ele>
        <time>2021-06-24T12:43:24Z</time>
      </trkpt>
      <trkpt lat="48.64324" lon="-4.27799">
        <ele>3</ele>
        <time>2021-06-24T12:43:29Z</time>
      </trkpt>
      <trkpt lat="48.64326" lon="-4.27788">
        <ele>3</ele>
        <time>2021-06-24T12:43:35Z</time>
      </trkpt>
      <trkpt lat="48.64329" lon="-4.27777">
        <ele>3</ele>
        <time>2021-06-24T12:43:41Z</time>
      </trkpt>
      <trkpt lat="48.6434" lon="-4.27768">
        <ele>3</ele>
        <time>2021-06-24T12:43:51Z</time>
      </trkpt>
      <trkpt lat="48.64343" lon="-4.27765">
        <ele>3</ele>
        <time>2021-06-24T12:43:54Z</time>
      </trkpt>
      <trkpt lat="48.64346" lon="-4.2776">
        <ele>3</ele>
        <time>2021-06-24T12:43:58Z</time>
      </trkpt>
      <trkpt lat="48.64344" lon="-4.27764">
        <ele>3</ele>
        <time>2021-06-24T12:44:00Z</time>
      </trkpt>
      <trkpt lat="48.64362" lon="-4.27734">
        <ele>3</ele>
        <time>2021-06-24T12:44:22Z</time>
      </trkpt>
      <trkpt lat="48.6437" lon="-4.27729">
        <ele>3</ele>
        <time>2021-06-24T12:44:29Z</time>
      </trkpt>
      <trkpt lat="48.64373" lon="-4.27722">
        <ele>3</ele>
        <time>2021-06-24T12:44:33Z</time>
      </trkpt>
      <trkpt lat="48.64379" lon="-4.27719">
        <ele>3</ele>
        <time>2021-06-24T12:44:38Z</time>
      </trkpt>
      <trkpt lat="48.64381" lon="-4.27709">
        <ele>3</ele>
        <time>2021-06-24T12:44:44Z</time>
      </trkpt>
      <trkpt lat="48.64381" lon="-4.27702">
        <ele>3</ele>
        <time>2021-06-24T12:44:47Z</time>
      </trkpt>
      <trkpt lat="48.64382" lon="-4.27705">
        <ele>3</ele>
        <time>2021-06-24T12:44:49Z</time>
      </trkpt>
      <trkpt lat="48.64398" lon="-4.27683">
        <ele>3</ele>
        <time>2021-06-24T12:45:06Z</time>
      </trkpt>
      <trkpt lat="48.64435" lon="-4.27657">
        <ele>3</ele>
        <time>2021-06-24T12:45:39Z</time>
      </trkpt>
      <trkpt lat="48.64432" lon="-4.27644">
        <ele>3</ele>
        <time>2021-06-24T12:45:46Z</time>
      </trkpt>
      <trkpt lat="48.64438" lon="-4.27622">
        <ele>3</ele>
        <time>2021-06-24T12:45:59Z</time>
      </trkpt>
      <trkpt lat="48.64462" lon="-4.27577">
        <ele>3</ele>
        <time>2021-06-24T12:46:30Z</time>
      </trkpt>
      <trkpt lat="48.64492" lon="-4.27537">
        <ele>4</ele>
        <time>2021-06-24T12:47:02Z</time>
      </trkpt>
      <trkpt lat="48.64501" lon="-4.27522">
        <ele>4</ele>
        <time>2021-06-24T12:47:12Z</time>
      </trkpt>
      <trkpt lat="48.64522" lon="-4.27503">
        <ele>4</ele>
        <time>2021-06-24T12:47:32Z</time>
      </trkpt>
      <trkpt lat="48.64539" lon="-4.27469">
        <ele>4</ele>
        <time>2021-06-24T12:47:54Z</time>
      </trkpt>
      <trkpt lat="48.64574" lon="-4.27462">
        <ele>4</ele>
        <time>2021-06-24T12:48:23Z</time>
      </trkpt>
      <trkpt lat="48.64611" lon="-4.27422">
        <ele>4</ele>
        <time>2021-06-24T12:48:59Z</time>
      </trkpt>
      <trkpt lat="48.64652" lon="-4.2739">
        <ele>4</ele>
        <time>2021-06-24T12:49:36Z</time>
      </trkpt>
      <trkpt lat="48.64659" lon="-4.27379">
        <ele>4</ele>
        <time>2021-06-24T12:49:44Z</time>
      </trkpt>
      <trkpt lat="48.64683" lon="-4.27317">
        <ele>3</ele>
        <time>2021-06-24T12:50:22Z</time>
      </trkpt>
      <trkpt lat="48.64696" lon="-4.27293">
        <ele>3</ele>
        <time>2021-06-24T12:50:39Z</time>
      </trkpt>
      <trkpt lat="48.64708" lon="-4.27261">
        <ele>4</ele>
        <time>2021-06-24T12:50:58Z</time>
      </trkpt>
      <trkpt lat="48.64754" lon="-4.27225">
        <ele>4</ele>
        <time>2021-06-24T12:51:40Z</time>
      </trkpt>
      <trkpt lat="48.64787" lon="-4.27218">
        <ele>4</ele>
        <time>2021-06-24T12:52:06Z</time>
      </trkpt>
      <trkpt lat="48.64804" lon="-4.27212">
        <ele>4</ele>
        <time>2021-06-24T12:52:20Z</time>
      </trkpt>
      <trkpt lat="48.64815" lon="-4.27211">
        <ele>4</ele>
        <time>2021-06-24T12:52:29Z</time>
      </trkpt>
      <trkpt lat="48.64828" lon="-4.27156">
        <ele>4</ele>
        <time>2021-06-24T12:53:00Z</time>
      </trkpt>
      <trkpt lat="48.64739" lon="-4.27071">
        <ele>3</ele>
        <time>2021-06-24T12:54:24Z</time>
      </trkpt>
      <trkpt lat="48.64756" lon="-4.27036">
        <ele>4</ele>
        <time>2021-06-24T12:54:47Z</time>
      </trkpt>
      <trkpt lat="48.64756" lon="-4.26996">
        <ele>5</ele>
        <time>2021-06-24T12:55:08Z</time>
      </trkpt>
      <trkpt lat="48.64756" lon="-4.26986">
        <ele>5</ele>
        <time>2021-06-24T12:55:14Z</time>
      </trkpt>
      <trkpt lat="48.64753" lon="-4.26978">
        <ele>5</ele>
        <time>2021-06-24T12:55:18Z</time>
      </trkpt>
      <trkpt lat="48.64733" lon="-4.26955">
        <ele>6</ele>
        <time>2021-06-24T12:55:39Z</time>
      </trkpt>
      <trkpt lat="48.6473" lon="-4.26946">
        <ele>6</ele>
        <time>2021-06-24T12:55:44Z</time>
      </trkpt>
      <trkpt lat="48.64728" lon="-4.26929">
        <ele>6</ele>
        <time>2021-06-24T12:55:53Z</time>
      </trkpt>
      <trkpt lat="48.64728" lon="-4.26913">
        <ele>6</ele>
        <time>2021-06-24T12:56:01Z</time>
      </trkpt>
      <trkpt lat="48.64731" lon="-4.26883">
        <ele>6</ele>
        <time>2021-06-24T12:56:18Z</time>
      </trkpt>
      <trkpt lat="48.64732" lon="-4.26859">
        <ele>5</ele>
        <time>2021-06-24T12:56:30Z</time>
      </trkpt>
      <trkpt lat="48.64731" lon="-4.26834">
        <ele>5</ele>
        <time>2021-06-24T12:56:44Z</time>
      </trkpt>
      <trkpt lat="48.64726" lon="-4.26807">
        <ele>5</ele>
        <time>2021-06-24T12:56:58Z</time>
      </trkpt>
      <trkpt lat="48.64727" lon="-4.2679">
        <ele>5</ele>
        <time>2021-06-24T12:57:07Z</time>
      </trkpt>
      <trkpt lat="48.64728" lon="-4.26772">
        <ele>5</ele>
        <time>2021-06-24T12:57:17Z</time>
      </trkpt>
      <trkpt lat="48.64731" lon="-4.26758">
        <ele>5</ele>
        <time>2021-06-24T12:57:25Z</time>
      </trkpt>
      <trkpt lat="48.64741" lon="-4.26726">
        <ele>4</ele>
        <time>2021-06-24T12:57:43Z</time>
      </trkpt>
      <trkpt lat="48.6476" lon="-4.2669">
        <ele>3</ele>
        <time>2021-06-24T12:58:08Z</time>
      </trkpt>
      <trkpt lat="48.64776" lon="-4.26646">
        <ele>3</ele>
        <time>2021-06-24T12:58:34Z</time>
      </trkpt>
      <trkpt lat="48.64777" lon="-4.26637">
        <ele>3</ele>
        <time>2021-06-24T12:58:39Z</time>
      </trkpt>
      <trkpt lat="48.64771" lon="-4.26631">
        <ele>3</ele>
        <time>2021-06-24T12:58:45Z</time>
      </trkpt>
      <trkpt lat="48.64768" lon="-4.26623">
        <ele>3</ele>
        <time>2021-06-24T12:58:50Z</time>
      </trkpt>
      <trkpt lat="48.64769" lon="-4.26609">
        <ele>4</ele>
        <time>2021-06-24T12:58:57Z</time>
      </trkpt>
      <trkpt lat="48.64773" lon="-4.26592">
        <ele>4</ele>
        <time>2021-06-24T12:59:07Z</time>
      </trkpt>
      <trkpt lat="48.6478" lon="-4.26584">
        <ele>4</ele>
        <time>2021-06-24T12:59:14Z</time>
      </trkpt>
      <trkpt lat="48.64809" lon="-4.2653">
        <ele>4</ele>
        <time>2021-06-24T12:59:51Z</time>
      </trkpt>
      <trkpt lat="48.64812" lon="-4.26508">
        <ele>4</ele>
        <time>2021-06-24T13:00:03Z</time>
      </trkpt>
      <trkpt lat="48.64826" lon="-4.2648">
        <ele>4</ele>
        <time>2021-06-24T13:00:21Z</time>
      </trkpt>
      <trkpt lat="48.64837" lon="-4.26431">
        <ele>3</ele>
        <time>2021-06-24T13:00:49Z</time>
      </trkpt>
      <trkpt lat="48.64843" lon="-4.26388">
        <ele>2</ele>
        <time>2021-06-24T13:01:12Z</time>
      </trkpt>
      <trkpt lat="48.64847" lon="-4.26321">
        <ele>3</ele>
        <time>2021-06-24T13:01:47Z</time>
      </trkpt>
      <trkpt lat="48.64848" lon="-4.26212">
        <ele>3</ele>
        <time>2021-06-24T13:02:45Z</time>
      </trkpt>
      <trkpt lat="48.64855" lon="-4.26177">
        <ele>3</ele>
        <time>2021-06-24T13:03:04Z</time>
      </trkpt>
      <trkpt lat="48.64857" lon="-4.26166">
        <ele>3</ele>
        <time>2021-06-24T13:03:10Z</time>
      </trkpt>
      <trkpt lat="48.64859" lon="-4.26147">
        <ele>3</ele>
        <time>2021-06-24T13:03:21Z</time>
      </trkpt>
      <trkpt lat="48.64858" lon="-4.26131">
        <ele>4</ele>
        <time>2021-06-24T13:03:29Z</time>
      </trkpt>
      <trkpt lat="48.64861" lon="-4.26108">
        <ele>4</ele>
        <time>2021-06-24T13:03:41Z</time>
      </trkpt>
      <trkpt lat="48.64852" lon="-4.26088">
        <ele>4</ele>
        <time>2021-06-24T13:03:54Z</time>
      </trkpt>
      <trkpt lat="48.64842" lon="-4.26061">
        <ele>4</ele>
        <time>2021-06-24T13:04:11Z</time>
      </trkpt>
      <trkpt lat="48.64843" lon="-4.26022">
        <ele>3</ele>
        <time>2021-06-24T13:04:31Z</time>
      </trkpt>
      <trkpt lat="48.6484" lon="-4.25982">
        <ele>3</ele>
        <time>2021-06-24T13:04:53Z</time>
      </trkpt>
      <trkpt lat="48.64826" lon="-4.25959">
        <ele>4</ele>
        <time>2021-06-24T13:05:09Z</time>
      </trkpt>
      <trkpt lat="48.64787" lon="-4.2591">
        <ele>5</ele>
        <time>2021-06-24T13:05:50Z</time>
      </trkpt>
      <trkpt lat="48.6477" lon="-4.25865">
        <ele>5</ele>
        <time>2021-06-24T13:06:17Z</time>
      </trkpt>
      <trkpt lat="48.6476" lon="-4.2583">
        <ele>6</ele>
        <time>2021-06-24T13:06:37Z</time>
      </trkpt>
      <trkpt lat="48.64756" lon="-4.25792">
        <ele>5</ele>
        <time>2021-06-24T13:06:58Z</time>
      </trkpt>
      <trkpt lat="48.64755" lon="-4.25753">
        <ele>5</ele>
        <time>2021-06-24T13:07:18Z</time>
      </trkpt>
      <trkpt lat="48.64751" lon="-4.25727">
        <ele>5</ele>
        <time>2021-06-24T13:07:32Z</time>
      </trkpt>
      <trkpt lat="48.64751" lon="-4.25683">
        <ele>5</ele>
        <time>2021-06-24T13:07:56Z</time>
      </trkpt>
      <trkpt lat="48.6474" lon="-4.25638">
        <ele>5</ele>
        <time>2021-06-24T13:08:21Z</time>
      </trkpt>
      <trkpt lat="48.64744" lon="-4.25618">
        <ele>5</ele>
        <time>2021-06-24T13:08:32Z</time>
      </trkpt>
      <trkpt lat="48.64741" lon="-4.25598">
        <ele>5</ele>
        <time>2021-06-24T13:08:43Z</time>
      </trkpt>
      <trkpt lat="48.64744" lon="-4.25586">
        <ele>4</ele>
        <time>2021-06-24T13:08:50Z</time>
      </trkpt>
      <trkpt lat="48.6474" lon="-4.25571">
        <ele>4</ele>
        <time>2021-06-24T13:08:58Z</time>
      </trkpt>
      <trkpt lat="48.64734" lon="-4.25458">
        <ele>4</ele>
        <time>2021-06-24T13:09:58Z</time>
      </trkpt>
      <trkpt lat="48.64736" lon="-4.25443">
        <ele>4</ele>
        <time>2021-06-24T13:10:06Z</time>
      </trkpt>
      <trkpt lat="48.64733" lon="-4.25427">
        <ele>4</ele>
        <time>2021-06-24T13:10:15Z</time>
      </trkpt>
      <trkpt lat="48.6473" lon="-4.25394">
        <ele>4</ele>
        <time>2021-06-24T13:10:33Z</time>
      </trkpt>
      <trkpt lat="48.64731" lon="-4.25374">
        <ele>4</ele>
        <time>2021-06-24T13:10:43Z</time>
      </trkpt>
      <trkpt lat="48.64721" lon="-4.25299">
        <ele>5</ele>
        <time>2021-06-24T13:11:24Z</time>
      </trkpt>
      <trkpt lat="48.64719" lon="-4.25251">
        <ele>5</ele>
        <time>2021-06-24T13:11:49Z</time>
      </trkpt>
      <trkpt lat="48.64715" lon="-4.25225">
        <ele>5</ele>
        <time>2021-06-24T13:12:03Z</time>
      </trkpt>
      <trkpt lat="48.64715" lon="-4.25187">
        <ele>5</ele>
        <time>2021-06-24T13:12:24Z</time>
      </trkpt>
      <trkpt lat="48.64708" lon="-4.25158">
        <ele>5</ele>
        <time>2021-06-24T13:12:40Z</time>
      </trkpt>
      <trkpt lat="48.64706" lon="-4.25143">
        <ele>5</ele>
        <time>2021-06-24T13:12:48Z</time>
      </trkpt>
      <trkpt lat="48.64709" lon="-4.25098">
        <ele>5</ele>
        <time>2021-06-24T13:13:12Z</time>
      </trkpt>
      <trkpt lat="48.64708" lon="-4.25023">
        <ele>6</ele>
        <time>2021-06-24T13:13:52Z</time>
      </trkpt>
      <trkpt lat="48.64709" lon="-4.24991">
        <ele>6</ele>
        <time>2021-06-24T13:14:09Z</time>
      </trkpt>
      <trkpt lat="48.64707" lon="-4.24955">
        <ele>6</ele>
        <time>2021-06-24T13:14:28Z</time>
      </trkpt>
      <trkpt lat="48.64703" lon="-4.24932">
        <ele>6</ele>
        <time>2021-06-24T13:14:40Z</time>
      </trkpt>
      <trkpt lat="48.64697" lon="-4.24875">
        <ele>6</ele>
        <time>2021-06-24T13:15:11Z</time>
      </trkpt>
      <trkpt lat="48.64705" lon="-4.24801">
        <ele>5</ele>
        <time>2021-06-24T13:15:50Z</time>
      </trkpt>
      <trkpt lat="48.64713" lon="-4.24799">
        <ele>5</ele>
        <time>2021-06-24T13:15:57Z</time>
      </trkpt>
      <trkpt lat="48.64708" lon="-4.24788">
        <ele>5</ele>
        <time>2021-06-24T13:16:04Z</time>
      </trkpt>
      <trkpt lat="48.64712" lon="-4.24742">
        <ele>5</ele>
        <time>2021-06-24T13:16:29Z</time>
      </trkpt>
      <trkpt lat="48.64725" lon="-4.24704">
        <ele>6</ele>
        <time>2021-06-24T13:16:51Z</time>
      </trkpt>
      <trkpt lat="48.64734" lon="-4.24695">
        <ele>6</ele>
        <time>2021-06-24T13:17:00Z</time>
      </trkpt>
      <trkpt lat="48.64742" lon="-4.24664">
        <ele>7</ele>
        <time>2021-06-24T13:17:17Z</time>
      </trkpt>
      <trkpt lat="48.64747" lon="-4.24608">
        <ele>7</ele>
        <time>2021-06-24T13:17:47Z</time>
      </trkpt>
      <trkpt lat="48.64754" lon="-4.24558">
        <ele>7</ele>
        <time>2021-06-24T13:18:14Z</time>
      </trkpt>
      <trkpt lat="48.64761" lon="-4.24513">
        <ele>6</ele>
        <time>2021-06-24T13:18:39Z</time>
      </trkpt>
      <trkpt lat="48.64775" lon="-4.24447">
        <ele>6</ele>
        <time>2021-06-24T13:19:15Z</time>
      </trkpt>
      <trkpt lat="48.64781" lon="-4.24396">
        <ele>5</ele>
        <time>2021-06-24T13:19:43Z</time>
      </trkpt>
      <trkpt lat="48.64807" lon="-4.24285">
        <ele>4</ele>
        <time>2021-06-24T13:20:45Z</time>
      </trkpt>
      <trkpt lat="48.64813" lon="-4.24245">
        <ele>4</ele>
        <time>2021-06-24T13:21:07Z</time>
      </trkpt>
      <trkpt lat="48.64829" lon="-4.24178">
        <ele>4</ele>
        <time>2021-06-24T13:21:45Z</time>
      </trkpt>
      <trkpt lat="48.6484" lon="-4.24133">
        <ele>5</ele>
        <time>2021-06-24T13:22:10Z</time>
      </trkpt>
      <trkpt lat="48.64856" lon="-4.24056">
        <ele>6</ele>
        <time>2021-06-24T13:22:53Z</time>
      </trkpt>
      <trkpt lat="48.64859" lon="-4.24029">
        <ele>6</ele>
        <time>2021-06-24T13:23:07Z</time>
      </trkpt>
      <trkpt lat="48.64857" lon="-4.23943">
        <ele>6</ele>
        <time>2021-06-24T13:23:53Z</time>
      </trkpt>
      <trkpt lat="48.64854" lon="-4.23922">
        <ele>5</ele>
        <time>2021-06-24T13:24:04Z</time>
      </trkpt>
      <trkpt lat="48.64855" lon="-4.23918">
        <ele>5</ele>
        <time>2021-06-24T13:24:06Z</time>
      </trkpt>
      <trkpt lat="48.64859" lon="-4.23907">
        <ele>5</ele>
        <time>2021-06-24T13:24:13Z</time>
      </trkpt>
      <trkpt lat="48.64871" lon="-4.23834">
        <ele>4</ele>
        <time>2021-06-24T13:24:53Z</time>
      </trkpt>
      <trkpt lat="48.64868" lon="-4.23813">
        <ele>4</ele>
        <time>2021-06-24T13:25:04Z</time>
      </trkpt>
      <trkpt lat="48.64871" lon="-4.23787">
        <ele>4</ele>
        <time>2021-06-24T13:25:18Z</time>
      </trkpt>
      <trkpt lat="48.64877" lon="-4.23742">
        <ele>4</ele>
        <time>2021-06-24T13:25:42Z</time>
      </trkpt>
      <trkpt lat="48.64882" lon="-4.23722">
        <ele>4</ele>
        <time>2021-06-24T13:25:54Z</time>
      </trkpt>
      <trkpt lat="48.64888" lon="-4.23689">
        <ele>4</ele>
        <time>2021-06-24T13:26:12Z</time>
      </trkpt>
      <trkpt lat="48.64893" lon="-4.23638">
        <ele>4</ele>
        <time>2021-06-24T13:26:39Z</time>
      </trkpt>
      <trkpt lat="48.64872" lon="-4.236">
        <ele>5</ele>
        <time>2021-06-24T13:27:05Z</time>
      </trkpt>
      <trkpt lat="48.64858" lon="-4.2355">
        <ele>5</ele>
        <time>2021-06-24T13:27:34Z</time>
      </trkpt>
      <trkpt lat="48.64852" lon="-4.23508">
        <ele>5</ele>
        <time>2021-06-24T13:27:57Z</time>
      </trkpt>
      <trkpt lat="48.64871" lon="-4.23424">
        <ele>4</ele>
        <time>2021-06-24T13:28:44Z</time>
      </trkpt>
      <trkpt lat="48.64889" lon="-4.23375">
        <ele>3</ele>
        <time>2021-06-24T13:29:13Z</time>
      </trkpt>
      <trkpt lat="48.64891" lon="-4.23327">
        <ele>2</ele>
        <time>2021-06-24T13:29:39Z</time>
      </trkpt>
      <trkpt lat="48.64891" lon="-4.2331">
        <ele>2</ele>
        <time>2021-06-24T13:29:48Z</time>
      </trkpt>
      <trkpt lat="48.64966" lon="-4.23412">
        <ele>2</ele>
        <time>2021-06-24T13:31:08Z</time>
      </trkpt>
      <trkpt lat="48.64989" lon="-4.23442">
        <ele>2</ele>
        <time>2021-06-24T13:31:33Z</time>
      </trkpt>
      <trkpt lat="48.65016" lon="-4.2348">
        <ele>2</ele>
        <time>2021-06-24T13:32:02Z</time>
      </trkpt>
      <trkpt lat="48.65025" lon="-4.23495">
        <ele>3</ele>
        <time>2021-06-24T13:32:13Z</time>
      </trkpt>
      <trkpt lat="48.65025" lon="-4.23503">
        <ele>3</ele>
        <time>2021-06-24T13:32:17Z</time>
      </trkpt>
      <trkpt lat="48.65056" lon="-4.23522">
        <ele>5</ele>
        <time>2021-06-24T13:32:44Z</time>
      </trkpt>
      <trkpt lat="48.65062" lon="-4.235">
        <ele>5</ele>
        <time>2021-06-24T13:32:57Z</time>
      </trkpt>
      <trkpt lat="48.65063" lon="-4.23472">
        <ele>4</ele>
        <time>2021-06-24T13:33:11Z</time>
      </trkpt>
      <trkpt lat="48.65107" lon="-4.23381">
        <ele>3</ele>
        <time>2021-06-24T13:34:11Z</time>
      </trkpt>
      <trkpt lat="48.65135" lon="-4.23327">
        <ele>3</ele>
        <time>2021-06-24T13:34:47Z</time>
      </trkpt>
      <trkpt lat="48.65165" lon="-4.23241">
        <ele>3</ele>
        <time>2021-06-24T13:35:39Z</time>
      </trkpt>
      <trkpt lat="48.65176" lon="-4.23186">
        <ele>2</ele>
        <time>2021-06-24T13:36:09Z</time>
      </trkpt>
      <trkpt lat="48.65184" lon="-4.23147">
        <ele>2</ele>
        <time>2021-06-24T13:36:31Z</time>
      </trkpt>
      <trkpt lat="48.65197" lon="-4.23106">
        <ele>2</ele>
        <time>2021-06-24T13:36:55Z</time>
      </trkpt>
      <trkpt lat="48.6521" lon="-4.23087">
        <ele>3</ele>
        <time>2021-06-24T13:37:09Z</time>
      </trkpt>
      <trkpt lat="48.65243" lon="-4.23059">
        <ele>4</ele>
        <time>2021-06-24T13:37:40Z</time>
      </trkpt>
      <trkpt lat="48.65271" lon="-4.23018">
        <ele>4</ele>
        <time>2021-06-24T13:38:11Z</time>
      </trkpt>
      <trkpt lat="48.65288" lon="-4.22981">
        <ele>4</ele>
        <time>2021-06-24T13:38:35Z</time>
      </trkpt>
      <trkpt lat="48.65323" lon="-4.22919">
        <ele>6</ele>
        <time>2021-06-24T13:39:18Z</time>
      </trkpt>
      <trkpt lat="48.65344" lon="-4.22886">
        <ele>6</ele>
        <time>2021-06-24T13:39:42Z</time>
      </trkpt>
      <trkpt lat="48.65358" lon="-4.2287">
        <ele>5</ele>
        <time>2021-06-24T13:39:56Z</time>
      </trkpt>
      <trkpt lat="48.65382" lon="-4.22794">
        <ele>5</ele>
        <time>2021-06-24T13:40:41Z</time>
      </trkpt>
      <trkpt lat="48.65382" lon="-4.22744">
        <ele>6</ele>
        <time>2021-06-24T13:41:07Z</time>
      </trkpt>
      <trkpt lat="48.65392" lon="-4.22696">
        <ele>6</ele>
        <time>2021-06-24T13:41:34Z</time>
      </trkpt>
      <trkpt lat="48.65408" lon="-4.22654">
        <ele>7</ele>
        <time>2021-06-24T13:41:59Z</time>
      </trkpt>
      <trkpt lat="48.65418" lon="-4.226">
        <ele>7</ele>
        <time>2021-06-24T13:42:29Z</time>
      </trkpt>
      <trkpt lat="48.65431" lon="-4.22573">
        <ele>6</ele>
        <time>2021-06-24T13:42:47Z</time>
      </trkpt>
      <trkpt lat="48.65463" lon="-4.2255">
        <ele>4</ele>
        <time>2021-06-24T13:43:15Z</time>
      </trkpt>
      <trkpt lat="48.65489" lon="-4.22521">
        <ele>3</ele>
        <time>2021-06-24T13:43:41Z</time>
      </trkpt>
      <trkpt lat="48.6549" lon="-4.2252">
        <ele>3</ele>
        <time>2021-06-24T13:43:42Z</time>
      </trkpt>
      <trkpt lat="48.65496" lon="-4.22441">
        <ele>3</ele>
        <time>2021-06-24T13:44:24Z</time>
      </trkpt>
      <trkpt lat="48.65538" lon="-4.22317">
        <ele>4</ele>
        <time>2021-06-24T13:45:38Z</time>
      </trkpt>
      <trkpt lat="48.65502" lon="-4.2243">
        <ele>3</ele>
        <time>2021-06-24T13:46:44Z</time>
      </trkpt>
      <trkpt lat="48.65494" lon="-4.2248">
        <ele>3</ele>
        <time>2021-06-24T13:47:11Z</time>
      </trkpt>
      <trkpt lat="48.65491" lon="-4.2251">
        <ele>3</ele>
        <time>2021-06-24T13:47:27Z</time>
      </trkpt>
      <trkpt lat="48.65477" lon="-4.22535">
        <ele>3</ele>
        <time>2021-06-24T13:47:45Z</time>
      </trkpt>
      <trkpt lat="48.65452" lon="-4.22559">
        <ele>4</ele>
        <time>2021-06-24T13:48:08Z</time>
      </trkpt>
      <trkpt lat="48.6543" lon="-4.22577">
        <ele>6</ele>
        <time>2021-06-24T13:48:28Z</time>
      </trkpt>
      <trkpt lat="48.65422" lon="-4.22594">
        <ele>7</ele>
        <time>2021-06-24T13:48:39Z</time>
      </trkpt>
      <trkpt lat="48.65412" lon="-4.22675">
        <ele>8</ele>
        <time>2021-06-24T13:49:23Z</time>
      </trkpt>
      <trkpt lat="48.65404" lon="-4.22698">
        <ele>7</ele>
        <time>2021-06-24T13:49:37Z</time>
      </trkpt>
      <trkpt lat="48.65388" lon="-4.22731">
        <ele>6</ele>
        <time>2021-06-24T13:49:58Z</time>
      </trkpt>
      <trkpt lat="48.65389" lon="-4.22759">
        <ele>6</ele>
        <time>2021-06-24T13:50:13Z</time>
      </trkpt>
      <trkpt lat="48.65389" lon="-4.22801">
        <ele>5</ele>
        <time>2021-06-24T13:50:35Z</time>
      </trkpt>
      <trkpt lat="48.65379" lon="-4.2284">
        <ele>4</ele>
        <time>2021-06-24T13:50:58Z</time>
      </trkpt>
      <trkpt lat="48.65361" lon="-4.22887">
        <ele>5</ele>
        <time>2021-06-24T13:51:26Z</time>
      </trkpt>
      <trkpt lat="48.65326" lon="-4.22981">
        <ele>5</ele>
        <time>2021-06-24T13:52:23Z</time>
      </trkpt>
      <trkpt lat="48.6531" lon="-4.23001">
        <ele>4</ele>
        <time>2021-06-24T13:52:40Z</time>
      </trkpt>
      <trkpt lat="48.65302" lon="-4.23024">
        <ele>4</ele>
        <time>2021-06-24T13:52:54Z</time>
      </trkpt>
      <trkpt lat="48.65264" lon="-4.23094">
        <ele>4</ele>
        <time>2021-06-24T13:53:42Z</time>
      </trkpt>
      <trkpt lat="48.65227" lon="-4.23124">
        <ele>3</ele>
        <time>2021-06-24T13:54:15Z</time>
      </trkpt>
      <trkpt lat="48.65195" lon="-4.23151">
        <ele>2</ele>
        <time>2021-06-24T13:54:45Z</time>
      </trkpt>
      <trkpt lat="48.65181" lon="-4.23181">
        <ele>2</ele>
        <time>2021-06-24T13:55:04Z</time>
      </trkpt>
      <trkpt lat="48.65171" lon="-4.23207">
        <ele>2</ele>
        <time>2021-06-24T13:55:20Z</time>
      </trkpt>
      <trkpt lat="48.65159" lon="-4.23254">
        <ele>3</ele>
        <time>2021-06-24T13:55:47Z</time>
      </trkpt>
      <trkpt lat="48.65145" lon="-4.23298">
        <ele>3</ele>
        <time>2021-06-24T13:56:12Z</time>
      </trkpt>
      <trkpt lat="48.65122" lon="-4.23354">
        <ele>3</ele>
        <time>2021-06-24T13:56:47Z</time>
      </trkpt>
      <trkpt lat="48.65086" lon="-4.2342">
        <ele>4</ele>
        <time>2021-06-24T13:57:33Z</time>
      </trkpt>
      <trkpt lat="48.65067" lon="-4.2346">
        <ele>4</ele>
        <time>2021-06-24T13:57:59Z</time>
      </trkpt>
      <trkpt lat="48.65062" lon="-4.23485">
        <ele>5</ele>
        <time>2021-06-24T13:58:12Z</time>
      </trkpt>
      <trkpt lat="48.65059" lon="-4.23511">
        <ele>5</ele>
        <time>2021-06-24T13:58:26Z</time>
      </trkpt>
      <trkpt lat="48.65052" lon="-4.23542">
        <ele>6</ele>
        <time>2021-06-24T13:58:44Z</time>
      </trkpt>
      <trkpt lat="48.65036" lon="-4.23591">
        <ele>7</ele>
        <time>2021-06-24T13:59:13Z</time>
      </trkpt>
      <trkpt lat="48.65015" lon="-4.23667">
        <ele>6</ele>
        <time>2021-06-24T13:59:56Z</time>
      </trkpt>
      <trkpt lat="48.64994" lon="-4.23718">
        <ele>5</ele>
        <time>2021-06-24T14:00:28Z</time>
      </trkpt>
      <trkpt lat="48.64975" lon="-4.23802">
        <ele>6</ele>
        <time>2021-06-24T14:01:15Z</time>
      </trkpt>
      <trkpt lat="48.64965" lon="-4.23847">
        <ele>6</ele>
        <time>2021-06-24T14:01:40Z</time>
      </trkpt>
      <trkpt lat="48.64955" lon="-4.23881">
        <ele>6</ele>
        <time>2021-06-24T14:02:00Z</time>
      </trkpt>
      <trkpt lat="48.64942" lon="-4.23914">
        <ele>6</ele>
        <time>2021-06-24T14:02:20Z</time>
      </trkpt>
      <trkpt lat="48.64927" lon="-4.24023">
        <ele>6</ele>
        <time>2021-06-24T14:03:19Z</time>
      </trkpt>
      <trkpt lat="48.64911" lon="-4.24074">
        <ele>7</ele>
        <time>2021-06-24T14:03:49Z</time>
      </trkpt>
      <trkpt lat="48.64908" lon="-4.24113">
        <ele>7</ele>
        <time>2021-06-24T14:04:10Z</time>
      </trkpt>
      <trkpt lat="48.64903" lon="-4.24149">
        <ele>7</ele>
        <time>2021-06-24T14:04:29Z</time>
      </trkpt>
      <trkpt lat="48.6491" lon="-4.24276">
        <ele>7</ele>
        <time>2021-06-24T14:05:37Z</time>
      </trkpt>
      <trkpt lat="48.64847" lon="-4.24394">
        <ele>4</ele>
        <time>2021-06-24T14:06:57Z</time>
      </trkpt>
      <trkpt lat="48.64841" lon="-4.24412">
        <ele>4</ele>
        <time>2021-06-24T14:07:07Z</time>
      </trkpt>
      <trkpt lat="48.64838" lon="-4.24429">
        <ele>4</ele>
        <time>2021-06-24T14:07:17Z</time>
      </trkpt>
      <trkpt lat="48.64838" lon="-4.24469">
        <ele>5</ele>
        <time>2021-06-24T14:07:38Z</time>
      </trkpt>
      <trkpt lat="48.64833" lon="-4.2449">
        <ele>6</ele>
        <time>2021-06-24T14:07:50Z</time>
      </trkpt>
      <trkpt lat="48.64824" lon="-4.24514">
        <ele>6</ele>
        <time>2021-06-24T14:08:04Z</time>
      </trkpt>
      <trkpt lat="48.64832" lon="-4.24545">
        <ele>5</ele>
        <time>2021-06-24T14:08:22Z</time>
      </trkpt>
      <trkpt lat="48.64846" lon="-4.2467">
        <ele>7</ele>
        <time>2021-06-24T14:09:29Z</time>
      </trkpt>
      <trkpt lat="48.64855" lon="-4.2474">
        <ele>7</ele>
        <time>2021-06-24T14:10:07Z</time>
      </trkpt>
      <trkpt lat="48.64856" lon="-4.24778">
        <ele>7</ele>
        <time>2021-06-24T14:10:27Z</time>
      </trkpt>
      <trkpt lat="48.64855" lon="-4.24817">
        <ele>6</ele>
        <time>2021-06-24T14:10:47Z</time>
      </trkpt>
      <trkpt lat="48.64866" lon="-4.24833">
        <ele>6</ele>
        <time>2021-06-24T14:11:00Z</time>
      </trkpt>
      <trkpt lat="48.64899" lon="-4.24943">
        <ele>7</ele>
        <time>2021-06-24T14:12:04Z</time>
      </trkpt>
      <trkpt lat="48.64925" lon="-4.25158">
        <ele>6</ele>
        <time>2021-06-24T14:13:59Z</time>
      </trkpt>
      <trkpt lat="48.64936" lon="-4.25244">
        <ele>6</ele>
        <time>2021-06-24T14:14:46Z</time>
      </trkpt>
      <trkpt lat="48.64939" lon="-4.25318">
        <ele>5</ele>
        <time>2021-06-24T14:15:25Z</time>
      </trkpt>
      <trkpt lat="48.64942" lon="-4.25343">
        <ele>5</ele>
        <time>2021-06-24T14:15:38Z</time>
      </trkpt>
      <trkpt lat="48.64941" lon="-4.25414">
        <ele>5</ele>
        <time>2021-06-24T14:16:16Z</time>
      </trkpt>
      <trkpt lat="48.64935" lon="-4.25447">
        <ele>5</ele>
        <time>2021-06-24T14:16:34Z</time>
      </trkpt>
      <trkpt lat="48.64933" lon="-4.25511">
        <ele>6</ele>
        <time>2021-06-24T14:17:08Z</time>
      </trkpt>
      <trkpt lat="48.64947" lon="-4.25582">
        <ele>4</ele>
        <time>2021-06-24T14:17:47Z</time>
      </trkpt>
      <trkpt lat="48.64951" lon="-4.2571">
        <ele>3</ele>
        <time>2021-06-24T14:18:55Z</time>
      </trkpt>
      <trkpt lat="48.64964" lon="-4.25793">
        <ele>4</ele>
        <time>2021-06-24T14:19:40Z</time>
      </trkpt>
      <trkpt lat="48.64968" lon="-4.25896">
        <ele>5</ele>
        <time>2021-06-24T14:20:34Z</time>
      </trkpt>
      <trkpt lat="48.64978" lon="-4.25945">
        <ele>5</ele>
        <time>2021-06-24T14:21:02Z</time>
      </trkpt>
      <trkpt lat="48.64972" lon="-4.26076">
        <ele>5</ele>
        <time>2021-06-24T14:22:11Z</time>
      </trkpt>
      <trkpt lat="48.64956" lon="-4.26129">
        <ele>5</ele>
        <time>2021-06-24T14:22:42Z</time>
      </trkpt>
      <trkpt lat="48.64958" lon="-4.2616">
        <ele>5</ele>
        <time>2021-06-24T14:22:58Z</time>
      </trkpt>
      <trkpt lat="48.64963" lon="-4.26246">
        <ele>4</ele>
        <time>2021-06-24T14:23:44Z</time>
      </trkpt>
      <trkpt lat="48.64961" lon="-4.26298">
        <ele>4</ele>
        <time>2021-06-24T14:24:12Z</time>
      </trkpt>
      <trkpt lat="48.64961" lon="-4.26404">
        <ele>3</ele>
        <time>2021-06-24T14:25:08Z</time>
      </trkpt>
      <trkpt lat="48.64956" lon="-4.26432">
        <ele>4</ele>
        <time>2021-06-24T14:25:23Z</time>
      </trkpt>
      <trkpt lat="48.6496" lon="-4.26449">
        <ele>4</ele>
        <time>2021-06-24T14:25:33Z</time>
      </trkpt>
      <trkpt lat="48.64959" lon="-4.26485">
        <ele>4</ele>
        <time>2021-06-24T14:25:52Z</time>
      </trkpt>
      <trkpt lat="48.64958" lon="-4.2651">
        <ele>4</ele>
        <time>2021-06-24T14:26:05Z</time>
      </trkpt>
      <trkpt lat="48.64964" lon="-4.26556">
        <ele>4</ele>
        <time>2021-06-24T14:26:30Z</time>
      </trkpt>
      <trkpt lat="48.64962" lon="-4.26594">
        <ele>4</ele>
        <time>2021-06-24T14:26:50Z</time>
      </trkpt>
      <trkpt lat="48.64962" lon="-4.26646">
        <ele>5</ele>
        <time>2021-06-24T14:27:17Z</time>
      </trkpt>
      <trkpt lat="48.64956" lon="-4.26696">
        <ele>5</ele>
        <time>2021-06-24T14:27:44Z</time>
      </trkpt>
      <trkpt lat="48.64958" lon="-4.26721">
        <ele>4</ele>
        <time>2021-06-24T14:27:58Z</time>
      </trkpt>
      <trkpt lat="48.64955" lon="-4.26733">
        <ele>4</ele>
        <time>2021-06-24T14:28:04Z</time>
      </trkpt>
      <trkpt lat="48.64943" lon="-4.26758">
        <ele>5</ele>
        <time>2021-06-24T14:28:21Z</time>
      </trkpt>
      <trkpt lat="48.6492" lon="-4.26836">
        <ele>5</ele>
        <time>2021-06-24T14:29:06Z</time>
      </trkpt>
      <trkpt lat="48.64919" lon="-4.26849">
        <ele>5</ele>
        <time>2021-06-24T14:29:13Z</time>
      </trkpt>
      <trkpt lat="48.6492" lon="-4.26855">
        <ele>5</ele>
        <time>2021-06-24T14:29:16Z</time>
      </trkpt>
      <trkpt lat="48.64916" lon="-4.26903">
        <ele>7</ele>
        <time>2021-06-24T14:29:42Z</time>
      </trkpt>
      <trkpt lat="48.64908" lon="-4.26924">
        <ele>7</ele>
        <time>2021-06-24T14:29:54Z</time>
      </trkpt>
      <trkpt lat="48.64882" lon="-4.26977">
        <ele>7</ele>
        <time>2021-06-24T14:30:29Z</time>
      </trkpt>
      <trkpt lat="48.64852" lon="-4.27098">
        <ele>4</ele>
        <time>2021-06-24T14:31:38Z</time>
      </trkpt>
      <trkpt lat="48.64846" lon="-4.2711">
        <ele>4</ele>
        <time>2021-06-24T14:31:46Z</time>
      </trkpt>
      <trkpt lat="48.64846" lon="-4.27128">
        <ele>4</ele>
        <time>2021-06-24T14:31:55Z</time>
      </trkpt>
      <trkpt lat="48.64844" lon="-4.27132">
        <ele>4</ele>
        <time>2021-06-24T14:31:58Z</time>
      </trkpt>
      <trkpt lat="48.64839" lon="-4.27135">
        <ele>4</ele>
        <time>2021-06-24T14:32:02Z</time>
      </trkpt>
      <trkpt lat="48.64836" lon="-4.27142">
        <ele>4</ele>
        <time>2021-06-24T14:32:07Z</time>
      </trkpt>
      <trkpt lat="48.64831" lon="-4.27153">
        <ele>4</ele>
        <time>2021-06-24T14:32:14Z</time>
      </trkpt>
      <trkpt lat="48.64815" lon="-4.27215">
        <ele>4</ele>
        <time>2021-06-24T14:32:49Z</time>
      </trkpt>
      <trkpt lat="48.64797" lon="-4.27277">
        <ele>4</ele>
        <time>2021-06-24T14:33:25Z</time>
      </trkpt>
      <trkpt lat="48.64786" lon="-4.27299">
        <ele>4</ele>
        <time>2021-06-24T14:33:39Z</time>
      </trkpt>
      <trkpt lat="48.64777" lon="-4.27311">
        <ele>3</ele>
        <time>2021-06-24T14:33:49Z</time>
      </trkpt>
      <trkpt lat="48.64765" lon="-4.27329">
        <ele>3</ele>
        <time>2021-06-24T14:34:02Z</time>
      </trkpt>
      <trkpt lat="48.64742" lon="-4.27368">
        <ele>2</ele>
        <time>2021-06-24T14:34:30Z</time>
      </trkpt>
      <trkpt lat="48.64718" lon="-4.27401">
        <ele>3</ele>
        <time>2021-06-24T14:34:56Z</time>
      </trkpt>
      <trkpt lat="48.64682" lon="-4.27441">
        <ele>4</ele>
        <time>2021-06-24T14:35:32Z</time>
      </trkpt>
      <trkpt lat="48.64672" lon="-4.27456">
        <ele>4</ele>
        <time>2021-06-24T14:35:43Z</time>
      </trkpt>
      <trkpt lat="48.6465" lon="-4.27502">
        <ele>4</ele>
        <time>2021-06-24T14:36:13Z</time>
      </trkpt>
      <trkpt lat="48.64633" lon="-4.27524">
        <ele>4</ele>
        <time>2021-06-24T14:36:31Z</time>
      </trkpt>
      <trkpt lat="48.64606" lon="-4.27543">
        <ele>3</ele>
        <time>2021-06-24T14:36:55Z</time>
      </trkpt>
      <trkpt lat="48.64579" lon="-4.27567">
        <ele>3</ele>
        <time>2021-06-24T14:37:20Z</time>
      </trkpt>
      <trkpt lat="48.64546" lon="-4.27599">
        <ele>3</ele>
        <time>2021-06-24T14:37:51Z</time>
      </trkpt>
      <trkpt lat="48.64495" lon="-4.27619">
        <ele>3</ele>
        <time>2021-06-24T14:38:33Z</time>
      </trkpt>
      <trkpt lat="48.64469" lon="-4.27645">
        <ele>3</ele>
        <time>2021-06-24T14:38:58Z</time>
      </trkpt>
      <trkpt lat="48.64427" lon="-4.27664">
        <ele>3</ele>
        <time>2021-06-24T14:39:34Z</time>
      </trkpt>
      <trkpt lat="48.64404" lon="-4.27678">
        <ele>3</ele>
        <time>2021-06-24T14:39:53Z</time>
      </trkpt>
      <trkpt lat="48.64391" lon="-4.27691">
        <ele>3</ele>
        <time>2021-06-24T14:40:06Z</time>
      </trkpt>
      <trkpt lat="48.64384" lon="-4.277">
        <ele>3</ele>
        <time>2021-06-24T14:40:13Z</time>
      </trkpt>
      <trkpt lat="48.64381" lon="-4.27712">
        <ele>3</ele>
        <time>2021-06-24T14:40:20Z</time>
      </trkpt>
      <trkpt lat="48.64376" lon="-4.2772">
        <ele>3</ele>
        <time>2021-06-24T14:40:26Z</time>
      </trkpt>
      <trkpt lat="48.64372" lon="-4.27726">
        <ele>3</ele>
        <time>2021-06-24T14:40:30Z</time>
      </trkpt>
      <trkpt lat="48.64365" lon="-4.27733">
        <ele>3</ele>
        <time>2021-06-24T14:40:37Z</time>
      </trkpt>
      <trkpt lat="48.64352" lon="-4.27748">
        <ele>3</ele>
        <time>2021-06-24T14:40:50Z</time>
      </trkpt>
      <trkpt lat="48.64336" lon="-4.2777">
        <ele>3</ele>
        <time>2021-06-24T14:41:07Z</time>
      </trkpt>
      <trkpt lat="48.64327" lon="-4.27784">
        <ele>3</ele>
        <time>2021-06-24T14:41:18Z</time>
      </trkpt>
      <trkpt lat="48.64325" lon="-4.27794">
        <ele>3</ele>
        <time>2021-06-24T14:41:23Z</time>
      </trkpt>
      <trkpt lat="48.64323" lon="-4.27806">
        <ele>3</ele>
        <time>2021-06-24T14:41:30Z</time>
      </trkpt>
      <trkpt lat="48.64316" lon="-4.27811">
        <ele>3</ele>
        <time>2021-06-24T14:41:36Z</time>
      </trkpt>
      <trkpt lat="48.64309" lon="-4.27813">
        <ele>3</ele>
        <time>2021-06-24T14:41:42Z</time>
      </trkpt>
      <trkpt lat="48.64306" lon="-4.27817">
        <ele>4</ele>
        <time>2021-06-24T14:41:45Z</time>
      </trkpt>
      <trkpt lat="48.64295" lon="-4.27834">
        <ele>4</ele>
        <time>2021-06-24T14:41:58Z</time>
      </trkpt>
      <trkpt lat="48.64283" lon="-4.27855">
        <ele>4</ele>
        <time>2021-06-24T14:42:12Z</time>
      </trkpt>
      <trkpt lat="48.64263" lon="-4.27885">
        <ele>3</ele>
        <time>2021-06-24T14:42:35Z</time>
      </trkpt>
      <trkpt lat="48.64237" lon="-4.27929">
        <ele>3</ele>
        <time>2021-06-24T14:43:06Z</time>
      </trkpt>
      <trkpt lat="48.64217" lon="-4.27964">
        <ele>3</ele>
        <time>2021-06-24T14:43:30Z</time>
      </trkpt>
      <trkpt lat="48.64209" lon="-4.27982">
        <ele>2</ele>
        <time>2021-06-24T14:43:42Z</time>
      </trkpt>
      <trkpt lat="48.64202" lon="-4.2799">
        <ele>2</ele>
        <time>2021-06-24T14:43:49Z</time>
      </trkpt>
      <trkpt lat="48.64235" lon="-4.28003">
        <ele>2</ele>
        <time>2021-06-24T14:44:16Z</time>
      </trkpt>
      <trkpt lat="48.64212" lon="-4.28033">
        <ele>2</ele>
        <time>2021-06-24T14:44:41Z</time>
      </trkpt>
      <trkpt lat="48.64196" lon="-4.28053">
        <ele>2</ele>
        <time>2021-06-24T14:44:57Z</time>
      </trkpt>
      <trkpt lat="48.64158" lon="-4.28125">
        <ele>2</ele>
        <time>2021-06-24T14:45:46Z</time>
      </trkpt>
      <trkpt lat="48.64135" lon="-4.28204">
        <ele>2</ele>
        <time>2021-06-24T14:46:32Z</time>
      </trkpt>
      <trkpt lat="48.64107" lon="-4.28307">
        <ele>3</ele>
        <time>2021-06-24T14:47:31Z</time>
      </trkpt>
      <trkpt lat="48.64098" lon="-4.28393">
        <ele>2</ele>
        <time>2021-06-24T14:48:17Z</time>
      </trkpt>
      <trkpt lat="48.64091" lon="-4.28474">
        <ele>2</ele>
        <time>2021-06-24T14:49:00Z</time>
      </trkpt>
      <trkpt lat="48.6409" lon="-4.28513">
        <ele>2</ele>
        <time>2021-06-24T14:49:20Z</time>
      </trkpt>
      <trkpt lat="48.641" lon="-4.28587">
        <ele>3</ele>
        <time>2021-06-24T14:50:00Z</time>
      </trkpt>
      <trkpt lat="48.64099" lon="-4.28646">
        <ele>3</ele>
        <time>2021-06-24T14:50:32Z</time>
      </trkpt>
      <trkpt lat="48.64104" lon="-4.28679">
        <ele>3</ele>
        <time>2021-06-24T14:50:50Z</time>
      </trkpt>
      <trkpt lat="48.641" lon="-4.28717">
        <ele>3</ele>
        <time>2021-06-24T14:51:10Z</time>
      </trkpt>
      <trkpt lat="48.64093" lon="-4.28832">
        <ele>4</ele>
        <time>2021-06-24T14:52:11Z</time>
      </trkpt>
      <trkpt lat="48.64073" lon="-4.28883">
        <ele>5</ele>
        <time>2021-06-24T14:52:42Z</time>
      </trkpt>
      <trkpt lat="48.64081" lon="-4.28908">
        <ele>5</ele>
        <time>2021-06-24T14:52:57Z</time>
      </trkpt>
      <trkpt lat="48.64093" lon="-4.28932">
        <ele>4</ele>
        <time>2021-06-24T14:53:13Z</time>
      </trkpt>
      <trkpt lat="48.64074" lon="-4.28989">
        <ele>4</ele>
        <time>2021-06-24T14:53:47Z</time>
      </trkpt>
      <trkpt lat="48.6407" lon="-4.29024">
        <ele>4</ele>
        <time>2021-06-24T14:54:06Z</time>
      </trkpt>
      <trkpt lat="48.64071" lon="-4.29048">
        <ele>3</ele>
        <time>2021-06-24T14:54:18Z</time>
      </trkpt>
      <trkpt lat="48.64031" lon="-4.29103">
        <ele>3</ele>
        <time>2021-06-24T14:55:02Z</time>
      </trkpt>
      <trkpt lat="48.64011" lon="-4.29196">
        <ele>3</ele>
        <time>2021-06-24T14:55:53Z</time>
      </trkpt>
      <trkpt lat="48.64011" lon="-4.29228">
        <ele>4</ele>
        <time>2021-06-24T14:56:10Z</time>
      </trkpt>
      <trkpt lat="48.63992" lon="-4.29248">
        <ele>4</ele>
        <time>2021-06-24T14:56:29Z</time>
      </trkpt>
      <trkpt lat="48.6397" lon="-4.29371">
        <ele>6</ele>
        <time>2021-06-24T14:57:36Z</time>
      </trkpt>
      <trkpt lat="48.63996" lon="-4.29445">
        <ele>6</ele>
        <time>2021-06-24T14:58:21Z</time>
      </trkpt>
      <trkpt lat="48.63991" lon="-4.29501">
        <ele>5</ele>
        <time>2021-06-24T14:58:50Z</time>
      </trkpt>
      <trkpt lat="48.63997" lon="-4.29546">
        <ele>5</ele>
        <time>2021-06-24T14:59:15Z</time>
      </trkpt>
      <trkpt lat="48.63986" lon="-4.29606">
        <ele>5</ele>
        <time>2021-06-24T14:59:48Z</time>
      </trkpt>
      <trkpt lat="48.63966" lon="-4.29663">
        <ele>5</ele>
        <time>2021-06-24T15:00:22Z</time>
      </trkpt>
      <trkpt lat="48.63959" lon="-4.29702">
        <ele>6</ele>
        <time>2021-06-24T15:00:43Z</time>
      </trkpt>
      <trkpt lat="48.63979" lon="-4.29743">
        <ele>5</ele>
        <time>2021-06-24T15:01:10Z</time>
      </trkpt>
      <trkpt lat="48.6396" lon="-4.29785">
        <ele>6</ele>
        <time>2021-06-24T15:01:37Z</time>
      </trkpt>
      <trkpt lat="48.63924" lon="-4.29873">
        <ele>5</ele>
        <time>2021-06-24T15:02:32Z</time>
      </trkpt>
      <trkpt lat="48.63909" lon="-4.29911">
        <ele>4</ele>
        <time>2021-06-24T15:02:55Z</time>
      </trkpt>
      <trkpt lat="48.63895" lon="-4.29908">
        <ele>4</ele>
        <time>2021-06-24T15:03:07Z</time>
      </trkpt>
      <trkpt lat="48.63884" lon="-4.29897">
        <ele>3</ele>
        <time>2021-06-24T15:03:17Z</time>
      </trkpt>
      <trkpt lat="48.63877" lon="-4.29859">
        <ele>3</ele>
        <time>2021-06-24T15:03:38Z</time>
      </trkpt>
      <trkpt lat="48.63869" lon="-4.2981">
        <ele>4</ele>
        <time>2021-06-24T15:04:05Z</time>
      </trkpt>
      <trkpt lat="48.63869" lon="-4.2976">
        <ele>4</ele>
        <time>2021-06-24T15:04:31Z</time>
      </trkpt>
      <trkpt lat="48.63883" lon="-4.2973">
        <ele>5</ele>
        <time>2021-06-24T15:04:51Z</time>
      </trkpt>
      <trkpt lat="48.63895" lon="-4.29684">
        <ele>5</ele>
        <time>2021-06-24T15:05:17Z</time>
      </trkpt>
      <trkpt lat="48.63894" lon="-4.29624">
        <ele>5</ele>
        <time>2021-06-24T15:05:49Z</time>
      </trkpt>
      <trkpt lat="48.63868" lon="-4.29505">
        <ele>4</ele>
        <time>2021-06-24T15:06:55Z</time>
      </trkpt>
      <trkpt lat="48.63823" lon="-4.2939">
        <ele>4</ele>
        <time>2021-06-24T15:08:06Z</time>
      </trkpt>
      <trkpt lat="48.63799" lon="-4.29343">
        <ele>3</ele>
        <time>2021-06-24T15:08:37Z</time>
      </trkpt>
      <trkpt lat="48.63767" lon="-4.29326">
        <ele>2</ele>
        <time>2021-06-24T15:09:04Z</time>
      </trkpt>
      <trkpt lat="48.63792" lon="-4.29321">
        <ele>3</ele>
        <time>2021-06-24T15:09:24Z</time>
      </trkpt>
      <trkpt lat="48.63805" lon="-4.29292">
        <ele>2</ele>
        <time>2021-06-24T15:09:43Z</time>
      </trkpt>
      <trkpt lat="48.63825" lon="-4.29112">
        <ele>1</ele>
        <time>2021-06-24T15:11:19Z</time>
      </trkpt>
      <trkpt lat="48.63811" lon="-4.29078">
        <ele>1</ele>
        <time>2021-06-24T15:11:41Z</time>
      </trkpt>
      <trkpt lat="48.63786" lon="-4.28999">
        <ele>3.3</ele>
        <time>2021-06-24T15:12:27Z</time>
      </trkpt>
      <trkpt lat="48.63745" lon="-4.28938">
        <ele>1</ele>
        <time>2021-06-24T15:13:13Z</time>
      </trkpt>
      <trkpt lat="48.63747" lon="-4.28909">
        <ele>2</ele>
        <time>2021-06-24T15:13:28Z</time>
      </trkpt>
      <trkpt lat="48.63736" lon="-4.28898">
        <ele>2</ele>
        <time>2021-06-24T15:13:39Z</time>
      </trkpt>
      <trkpt lat="48.63726" lon="-4.28892">
        <ele>2</ele>
        <time>2021-06-24T15:13:48Z</time>
      </trkpt>
      <trkpt lat="48.63761" lon="-4.28668">
        <ele>3</ele>
        <time>2021-06-24T15:15:49Z</time>
      </trkpt>
      <trkpt lat="48.63799" lon="-4.28546">
        <ele>2</ele>
        <time>2021-06-24T15:17:01Z</time>
      </trkpt>
      <trkpt lat="48.63802" lon="-4.28436">
        <ele>3</ele>
        <time>2021-06-24T15:17:59Z</time>
      </trkpt>
      <trkpt lat="48.63808" lon="-4.28422">
        <ele>3</ele>
        <time>2021-06-24T15:18:08Z</time>
      </trkpt>
      <trkpt lat="48.63801" lon="-4.28382">
        <ele>3</ele>
        <time>2021-06-24T15:18:30Z</time>
      </trkpt>
      <trkpt lat="48.63833" lon="-4.28133">
        <ele>1</ele>
        <time>2021-06-24T15:20:44Z</time>
      </trkpt>
      <trkpt lat="48.63859" lon="-4.27935">
        <ele>2</ele>
        <time>2021-06-24T15:22:31Z</time>
      </trkpt>
      <trkpt lat="48.63862" lon="-4.27895">
        <ele>2</ele>
        <time>2021-06-24T15:22:52Z</time>
      </trkpt>
      <trkpt lat="48.63866" lon="-4.27882">
        <ele>2</ele>
        <time>2021-06-24T15:23:00Z</time>
      </trkpt>
      <trkpt lat="48.63881" lon="-4.27889">
        <ele>2</ele>
        <time>2021-06-24T15:23:12Z</time>
      </trkpt>
    </trkseg>
  </trk>
</gpx>